Time;durP1;ratioP1;P1;durP2;ratioP2;P2;SDS_P1;SDS_P2;PMS_P1;PMS_P2;Temp;Humidity;BMP_temperature;BMP_pressure;BME280_temperature;BME280_humidity;BME280_pressure;Samples;Min_cycle;Max_cycle;Signal;HPM_P1;HPM_P2
2023/08/19 13:12:58;;;;;;;;;;;27.20;43.00;;;;;;5037837;27;80335;-47
2023/08/19 13:15:23;;;;;;;;;;;27.30;41.50;;;;;;5028875;27;80495;-46
2023/08/19 13:17:49;;;;;;;;;;;27.30;42.60;;;;;;5025446;28;80897;-46
2023/08/19 13:20:20;;;;;;;;;;;27.20;43.00;;;;;;5030579;28;81438;-43
2023/08/19 13:22:47;;;;;;;;;;;27.30;42.80;;;;;;5031238;28;80241;-46
2023/08/19 13:25:12;;;;;;;;;;;27.40;43.30;;;;;;5023534;28;82509;-44
2023/08/19 13:27:38;;;;;;;;;;;27.40;43.20;;;;;;5025543;28;81206;-46
2023/08/19 13:30:04;;;;;;;;;;;27.40;43.30;;;;;;5031985;28;80329;-50
2023/08/19 13:32:29;;;;;;;;;;;27.40;43.70;;;;;;5034704;28;80739;-47
2023/08/19 13:34:55;;;;;;;;;;;27.40;43.30;;;;;;5026155;28;80680;-47
2023/08/19 13:37:21;;;;;;;;;;;27.50;42.70;;;;;;5020984;28;80764;-47
2023/08/19 13:39:46;;;;;;;;;;;27.40;41.60;;;;;;5034115;28;80904;-46
2023/08/19 13:42:13;;;;;;;;;;;27.50;42.10;;;;;;5027260;28;80916;-45
2023/08/19 13:44:39;;;;;;;;;;;27.60;42.20;;;;;;5023895;28;82752;-46
2023/08/19 13:47:04;;;;;;;;;;;27.60;41.00;;;;;;5021376;28;82174;-47
2023/08/19 13:49:30;;;;;;;;;;;27.70;41.40;;;;;;5031927;28;80997;-48
2023/08/19 13:51:55;;;;;;;;;;;27.70;40.70;;;;;;5024505;28;80354;-46
2023/08/19 13:54:21;;;;;;;;;;;27.70;40.90;;;;;;5033545;28;80333;-46
2023/08/19 13:56:47;;;;;;;;;;;27.70;40.30;;;;;;5025684;28;80677;-45
2023/08/19 13:59:13;;;;;;;;;;;27.80;40.70;;;;;;5029940;28;81442;-46
2023/08/19 14:01:39;;;;;;;;;;;27.80;40.30;;;;;;5029442;28;80456;-46
2023/08/19 14:04:04;;;;;;;;;;;27.80;40.60;;;;;;5022661;28;80346;-47
2023/08/19 14:06:30;;;;;;;;;;;27.80;40.30;;;;;;5029569;28;81104;-46
2023/08/19 14:08:55;;;;;;;;;;;27.80;40.10;;;;;;5064272;27;80454;-46
2023/08/19 14:11:21;;;;;;;;;;;27.80;40.50;;;;;;5024640;28;81168;-46
2023/08/19 14:13:47;;;;;;;;;;;27.90;40.90;;;;;;5015925;28;80531;-45
2023/08/19 14:16:12;;;;;;;;;;;27.90;41.20;;;;;;5033066;28;80475;-45
2023/08/19 14:18:38;;;;;;;;;;;28.00;42.00;;;;;;5033716;28;81428;-45
2023/08/19 14:21:03;;;;;;;;;;;28.00;41.70;;;;;;5026235;28;80393;-48
2023/08/19 14:23:29;;;;;;;;;;;28.00;43.00;;;;;;5010592;28;80886;-44
2023/08/19 14:25:55;;;;;;;;;;;28.10;44.70;;;;;;5017761;28;81611;-46
2023/08/19 14:28:20;;;;;;;;;;;28.00;43.50;;;;;;5017245;28;80354;-48
2023/08/19 14:30:46;;;;;;;;;;;28.10;43.70;;;;;;5012812;28;80699;-46
2023/08/19 14:33:11;;;;;;;;;;;28.10;43.50;;;;;;5009906;28;81429;-50
2023/08/19 14:35:37;;;;;;;;;;;28.10;43.80;;;;;;5019647;28;80507;-48
2023/08/19 14:38:03;;;;;;;;;;;28.10;44.50;;;;;;5019337;28;81071;-49
2023/08/19 14:40:29;;;;;;;;;;;28.10;44.50;;;;;;5007339;28;80453;-48
2023/08/19 14:42:54;;;;;;;;;;;28.20;44.70;;;;;;5008544;28;81702;-49
2023/08/19 14:45:20;;;;;;;;;;;28.10;44.80;;;;;;5017297;28;81206;-48
2023/08/19 14:47:45;;;;;;;;;;;28.20;45.00;;;;;;5015565;28;80853;-48
2023/08/19 14:50:11;;;;;;;;;;;28.20;45.20;;;;;;5006719;28;81689;-48
2023/08/19 14:52:36;;;;;;;;;;;28.20;45.60;;;;;;5010140;28;80473;-47
2023/08/19 14:55:03;;;;;;;;;;;28.20;45.30;;;;;;5017385;28;80498;-45
2023/08/19 14:57:29;;;;;;;;;;;28.20;45.20;;;;;;5012729;28;82498;-49
2023/08/19 14:59:55;;;;;;;;;;;28.30;45.70;;;;;;5003851;28;80462;-48
2023/08/19 15:02:41;;;;;;;;;;;28.30;45.20;;;;;;5011288;28;80951;-50
2023/08/19 15:05:06;;;;;;;;;;;28.30;45.10;;;;;;5016522;28;81462;-47
2023/08/19 15:07:32;;;;;;;;;;;28.30;45.40;;;;;;5002359;28;80419;-49
2023/08/19 15:09:57;;;;;;;;;;;28.20;45.00;;;;;;5013173;28;82773;-48
2023/08/19 15:12:23;;;;;;;;;;;28.20;45.20;;;;;;5011223;28;81274;-48
2023/08/19 15:14:49;;;;;;;;;;;28.20;45.30;;;;;;5017025;28;80432;-50
2023/08/19 15:17:14;;;;;;;;;;;28.20;45.10;;;;;;5008511;28;80691;-49
2023/08/19 15:19:40;;;;;;;;;;;28.20;45.00;;;;;;5017390;28;81952;-47
2023/08/19 15:22:05;;;;;;;;;;;28.20;45.10;;;;;;5017017;28;80505;-48
2023/08/19 15:24:31;;;;;;;;;;;28.30;45.10;;;;;;5018301;28;81313;-48
2023/08/19 15:26:56;;;;;;;;;;;28.20;45.10;;;;;;5011516;28;80423;-49
2023/08/19 15:29:22;;;;;;;;;;;28.20;45.20;;;;;;5014306;28;80847;-48
2023/08/19 15:31:48;;;;;;;;;;;28.20;45.50;;;;;;5016600;28;81229;-48
2023/08/19 15:34:13;;;;;;;;;;;28.20;45.70;;;;;;5015206;28;80385;-48
2023/08/19 15:36:39;;;;;;;;;;;28.20;45.60;;;;;;5011842;28;81014;-47
2023/08/19 15:39:04;;;;;;;;;;;28.30;45.80;;;;;;5015120;28;81204;-46
2023/08/19 15:41:31;;;;;;;;;;;28.30;45.70;;;;;;5021151;28;80363;-46
2023/08/19 15:43:56;;;;;;;;;;;28.20;45.50;;;;;;5012858;28;81719;-50
2023/08/19 15:46:22;;;;;;;;;;;28.10;45.50;;;;;;5011729;28;80606;-48
2023/08/19 15:48:47;;;;;;;;;;;28.20;45.60;;;;;;5008213;28;80878;-55
2023/08/19 15:51:13;;;;;;;;;;;28.20;45.80;;;;;;5016254;28;80319;-47
2023/08/19 15:53:39;;;;;;;;;;;28.10;45.40;;;;;;5011554;28;81617;-47
2023/08/19 15:56:04;;;;;;;;;;;28.10;45.50;;;;;;5008806;28;81699;-45
2023/08/19 15:58:30;;;;;;;;;;;28.10;45.20;;;;;;5012634;28;80303;-45
2023/08/19 16:00:55;;;;;;;;;;;28.10;45.00;;;;;;5018128;28;80399;-45
2023/08/19 16:03:21;;;;;;;;;;;28.10;44.70;;;;;;5013829;28;80765;-45
2023/08/19 16:05:47;;;;;;;;;;;28.10;44.70;;;;;;5004472;28;80626;-46
2023/08/19 16:08:12;;;;;;;;;;;28.10;44.80;;;;;;5013055;28;80673;-45
2023/08/19 16:10:38;;;;;;;;;;;28.10;44.80;;;;;;5015551;28;80496;-45
2023/08/19 16:13:03;;;;;;;;;;;28.10;44.90;;;;;;5011178;28;81051;-47
2023/08/19 16:15:29;;;;;;;;;;;28.10;44.70;;;;;;5010132;28;80869;-46
2023/08/19 16:17:54;;;;;;;;;;;28.00;44.60;;;;;;5010451;28;80539;-47
2023/08/19 16:20:20;;;;;;;;;;;28.00;44.60;;;;;;5016362;28;80317;-48
2023/08/19 16:22:46;;;;;;;;;;;27.90;44.60;;;;;;5013182;28;81030;-47
2023/08/19 16:25:11;;;;;;;;;;;27.90;44.80;;;;;;5007251;28;81072;-49
2023/08/19 16:27:37;;;;;;;;;;;27.80;44.50;;;;;;5012244;28;80695;-48
2023/08/19 16:30:03;;;;;;;;;;;27.80;44.60;;;;;;5015300;28;81471;-47
2023/08/19 16:32:28;;;;;;;;;;;27.80;44.70;;;;;;5016236;28;82175;-47
2023/08/19 16:34:54;;;;;;;;;;;27.80;44.60;;;;;;5011391;28;81635;-48
2023/08/19 16:37:20;;;;;;;;;;;27.80;44.60;;;;;;5012652;28;82674;-48
2023/08/19 16:39:45;;;;;;;;;;;27.80;44.60;;;;;;5016195;28;80473;-47
2023/08/19 16:42:11;;;;;;;;;;;27.70;44.60;;;;;;5013247;28;80554;-51
2023/08/19 16:44:38;;;;;;;;;;;27.70;45.00;;;;;;5008590;28;81297;-50
2023/08/19 16:47:04;;;;;;;;;;;27.70;45.20;;;;;;5013906;28;80392;-52
2023/08/19 16:49:29;;;;;;;;;;;27.70;45.10;;;;;;5017047;28;82511;-48
2023/08/19 16:51:55;;;;;;;;;;;27.60;45.20;;;;;;5008740;28;81009;-49
2023/08/19 16:54:20;;;;;;;;;;;27.60;45.30;;;;;;5007979;28;81384;-46
2023/08/19 16:56:46;;;;;;;;;;;27.60;45.20;;;;;;5014203;28;81425;-43
2023/08/19 16:59:11;;;;;;;;;;;27.60;45.60;;;;;;5014585;28;80338;-45
2023/08/19 17:01:37;;;;;;;;;;;27.60;45.50;;;;;;5008855;28;80597;-44
2023/08/19 17:04:02;;;;;;;;;;;27.60;45.60;;;;;;5005175;28;81444;-47
2023/08/19 17:06:28;;;;;;;;;;;27.60;45.50;;;;;;5010376;28;80403;-44
2023/08/19 17:08:53;;;;;;;;;;;27.50;45.40;;;;;;5016601;28;81408;-45
2023/08/19 17:11:19;;;;;;;;;;;27.50;45.60;;;;;;5011686;28;80385;-44
2023/08/19 17:13:45;;;;;;;;;;;27.40;45.40;;;;;;5008010;28;80918;-44
2023/08/19 17:16:11;;;;;;;;;;;27.40;45.50;;;;;;5013130;28;83091;-45
2023/08/19 17:18:36;;;;;;;;;;;27.40;45.60;;;;;;5009000;28;81386;-44
2023/08/19 17:21:02;;;;;;;;;;;27.40;45.60;;;;;;5002167;28;83811;-44
2023/08/19 17:23:28;;;;;;;;;;;27.40;45.90;;;;;;5009384;28;83128;-46
2023/08/19 17:25:54;;;;;;;;;;;27.40;46.10;;;;;;5008430;28;82999;-45
2023/08/19 17:28:20;;;;;;;;;;;27.40;45.90;;;;;;5016292;28;83196;-46
2023/08/19 17:30:46;;;;;;;;;;;27.30;45.90;;;;;;5013677;28;82105;-47
2023/08/19 17:33:11;;;;;;;;;;;27.30;45.90;;;;;;5015137;28;82548;-46
2023/08/19 17:35:37;;;;;;;;;;;27.30;45.90;;;;;;5015333;28;82452;-47
2023/08/19 17:38:04;;;;;;;;;;;27.30;45.90;;;;;;5014491;28;81972;-46
2023/08/19 17:40:29;;;;;;;;;;;27.20;45.90;;;;;;5016228;28;82251;-46
2023/08/19 17:42:55;;;;;;;;;;;27.20;45.80;;;;;;5013525;28;82405;-46
2023/08/19 17:45:20;;;;;;;;;;;27.20;45.80;;;;;;5012492;28;82146;-45
2023/08/19 17:47:46;;;;;;;;;;;27.20;45.70;;;;;;5014196;28;82414;-46
2023/08/19 17:50:11;;;;;;;;;;;27.20;45.90;;;;;;5017482;28;84029;-48
2023/08/19 17:52:37;;;;;;;;;;;27.20;46.00;;;;;;5014887;28;83634;-46
2023/08/19 17:55:03;;;;;;;;;;;27.10;46.00;;;;;;5014352;28;83229;-45
2023/08/19 17:57:28;;;;;;;;;;;27.20;46.00;;;;;;5014360;28;82086;-47
2023/08/19 17:59:54;;;;;;;;;;;27.20;46.00;;;;;;5015376;28;82392;-45
2023/08/19 18:02:20;;;;;;;;;;;27.20;46.20;;;;;;5015818;28;83117;-45
2023/08/19 18:04:46;;;;;;;;;;;27.20;46.00;;;;;;5019842;28;82123;-46
2023/08/19 18:07:12;;;;;;;;;;;27.10;46.30;;;;;;5017741;28;82345;-47
2023/08/19 18:09:38;;;;;;;;;;;27.20;46.20;;;;;;5018500;28;83203;-44
2023/08/19 18:12:04;;;;;;;;;;;27.10;46.50;;;;;;5020449;28;82101;-45
2023/08/19 18:14:29;;;;;;;;;;;27.10;46.60;;;;;;5014271;28;84054;-47
2023/08/19 18:16:55;;;;;;;;;;;27.10;46.90;;;;;;5017560;28;82225;-47
2023/08/19 18:19:47;;;;;;;;;;;27.10;47.10;;;;;;5019538;28;82359;-45
2023/08/19 18:22:12;;;;;;;;;;;27.10;47.30;;;;;;5014753;28;82204;-45
2023/08/19 18:24:38;;;;;;;;;;;27.00;47.20;;;;;;5019259;28;82155;-47
2023/08/19 18:27:03;;;;;;;;;;;27.00;47.20;;;;;;5017014;28;82270;-47
2023/08/19 18:29:29;;;;;;;;;;;27.00;47.40;;;;;;5015447;28;82922;-46
2023/08/19 18:31:56;;;;;;;;;;;27.00;47.50;;;;;;5015884;28;81431;-46
2023/08/19 18:34:21;;;;;;;;;;;26.90;47.30;;;;;;5020515;28;81952;-44
2023/08/19 18:36:47;;;;;;;;;;;26.90;49.00;;;;;;5017217;28;82163;-48
2023/08/19 18:39:12;;;;;;;;;;;27.10;48.90;;;;;;5018401;28;82922;-45
2023/08/19 18:41:38;;;;;;;;;;;27.10;48.30;;;;;;5015971;28;82061;-47
2023/08/19 18:44:04;;;;;;;;;;;27.20;48.30;;;;;;5018913;28;82150;-45
2023/08/19 18:46:30;;;;;;;;;;;27.10;48.50;;;;;;5016244;28;82430;-49
2023/08/19 18:48:55;;;;;;;;;;;27.10;47.90;;;;;;5016652;28;82492;-49
2023/08/19 18:51:21;;;;;;;;;;;27.00;48.40;;;;;;5017782;28;82049;-46
2023/08/19 18:53:47;;;;;;;;;;;27.00;47.90;;;;;;5017821;28;82044;-46
2023/08/19 18:56:12;;;;;;;;;;;26.80;48.20;;;;;;5019972;28;82292;-45
2023/08/19 18:58:38;;;;;;;;;;;26.70;48.20;;;;;;5016181;28;82128;-48
2023/08/19 19:01:06;;;;;;;;;;;26.70;48.80;;;;;;5015074;28;83171;-46
2023/08/19 19:03:32;;;;;;;;;;;26.60;48.40;;;;;;5011680;28;82948;-48
2023/08/19 19:05:58;;;;;;;;;;;26.50;48.40;;;;;;5018219;28;82680;-47
2023/08/19 19:08:24;;;;;;;;;;;26.50;48.90;;;;;;5016704;28;82955;-45
2023/08/19 19:10:49;;;;;;;;;;;26.40;49.00;;;;;;5016224;28;81920;-44
2023/08/19 19:13:15;;;;;;;;;;;26.40;49.00;;;;;;5017921;28;82661;-55
2023/08/19 19:15:40;;;;;;;;;;;26.40;50.50;;;;;;5010579;28;82050;-47
2023/08/19 19:18:06;;;;;;;;;;;26.40;50.30;;;;;;5021381;28;82142;-48
2023/08/19 19:20:32;;;;;;;;;;;26.40;50.20;;;;;;5015602;28;82329;-52
2023/08/19 19:22:58;;;;;;;;;;;26.30;49.80;;;;;;5018524;28;81962;-51
2023/08/19 19:25:24;;;;;;;;;;;26.30;49.90;;;;;;5016157;28;82415;-50
2023/08/19 19:27:50;;;;;;;;;;;26.30;49.40;;;;;;5016496;28;84047;-48
2023/08/19 19:30:16;;;;;;;;;;;26.40;49.20;;;;;;5013749;28;82081;-50
2023/08/19 19:32:42;;;;;;;;;;;26.40;49.20;;;;;;5017346;28;82343;-49
2023/08/19 19:35:10;;;;;;;;;;;26.30;49.10;;;;;;5015275;28;82479;-50
2023/08/19 19:37:36;;;;;;;;;;;26.30;49.20;;;;;;5021287;28;82022;-49
2023/08/19 19:40:02;;;;;;;;;;;26.40;49.40;;;;;;5012245;28;83054;-51
2023/08/19 19:42:27;;;;;;;;;;;26.30;49.70;;;;;;5015962;28;82828;-48
2023/08/19 19:44:53;;;;;;;;;;;26.20;49.50;;;;;;5016833;28;82593;-46
2023/08/19 19:47:19;;;;;;;;;;;26.20;50.00;;;;;;5012293;28;83139;-50
2023/08/19 19:49:44;;;;;;;;;;;26.20;49.70;;;;;;5015917;28;82052;-44
2023/08/19 19:52:10;;;;;;;;;;;26.30;49.80;;;;;;5017128;28;82940;-51
2023/08/19 19:54:38;;;;;;;;;;;26.40;49.70;;;;;;5014712;28;82162;-45
2023/08/19 19:57:03;;;;;;;;;;;26.60;49.70;;;;;;5011230;28;81890;-42
2023/08/19 19:59:29;;;;;;;;;;;26.70;50.10;;;;;;5018170;28;82519;-47
2023/08/19 20:01:55;;;;;;;;;;;26.80;49.20;;;;;;5012962;28;82031;-45
2023/08/19 20:04:20;;;;;;;;;;;26.60;49.20;;;;;;5016020;28;82694;-45
2023/08/19 20:06:46;;;;;;;;;;;26.60;49.30;;;;;;5015124;28;83196;-45
2023/08/19 20:09:11;;;;;;;;;;;26.60;49.20;;;;;;5017235;28;81297;-43
2023/08/19 20:11:37;;;;;;;;;;;26.70;49.20;;;;;;5014547;28;81996;-44
2023/08/19 20:14:03;;;;;;;;;;;26.70;49.10;;;;;;5017366;28;82077;-47
2023/08/19 20:16:28;;;;;;;;;;;26.80;49.10;;;;;;5010765;28;83364;-47
2023/08/19 20:18:54;;;;;;;;;;;26.80;49.00;;;;;;5017161;28;82589;-46
2023/08/19 20:21:19;;;;;;;;;;;26.90;48.90;;;;;;5016899;28;83126;-44
2023/08/19 20:23:45;;;;;;;;;;;26.90;48.90;;;;;;5016182;28;82536;-48
2023/08/19 20:26:11;;;;;;;;;;;26.90;48.90;;;;;;5016177;28;83127;-45
2023/08/19 20:28:36;;;;;;;;;;;26.90;48.90;;;;;;5015282;28;82063;-49
2023/08/19 20:31:02;;;;;;;;;;;26.90;48.90;;;;;;5014080;28;82420;-45
2023/08/19 20:33:27;;;;;;;;;;;26.90;48.90;;;;;;5014602;28;82533;-45
2023/08/19 20:35:53;;;;;;;;;;;26.90;48.90;;;;;;5017667;28;82127;-45
2023/08/19 20:38:18;;;;;;;;;;;26.90;48.80;;;;;;5014623;28;82601;-44
2023/08/19 20:40:44;;;;;;;;;;;26.90;48.80;;;;;;5015821;28;84040;-46
2023/08/19 20:43:09;;;;;;;;;;;26.90;48.80;;;;;;5018119;28;82475;-44
2023/08/19 20:45:35;;;;;;;;;;;26.90;48.80;;;;;;5009041;28;83192;-45
2023/08/19 20:48:02;;;;;;;;;;;26.90;48.90;;;;;;5015816;28;82164;-44
2023/08/19 20:50:28;;;;;;;;;;;26.80;48.80;;;;;;5014433;28;82504;-44
2023/08/19 20:52:53;;;;;;;;;;;26.80;48.70;;;;;;5017154;28;82977;-44
2023/08/19 20:55:19;;;;;;;;;;;26.80;48.70;;;;;;5010151;28;82240;-46
2023/08/19 20:57:44;;;;;;;;;;;26.80;48.80;;;;;;5017342;28;82451;-45
2023/08/19 21:00:10;;;;;;;;;;;26.80;48.80;;;;;;5014294;28;81950;-46
2023/08/19 21:02:36;;;;;;;;;;;26.80;48.70;;;;;;5011020;28;82170;-45
2023/08/19 21:05:02;;;;;;;;;;;26.80;48.80;;;;;;5017553;28;83227;-48
2023/08/19 21:07:31;;;;;;;;;;;26.80;48.90;;;;;;5014798;28;82026;-47
2023/08/19 21:09:56;;;;;;;;;;;26.80;48.90;;;;;;5016914;28;82137;-44
2023/08/19 21:12:22;;;;;;;;;;;26.70;48.80;;;;;;5009321;28;81936;-45
2023/08/19 21:14:48;;;;;;;;;;;26.70;48.80;;;;;;5016723;28;81976;-46
2023/08/19 21:17:13;;;;;;;;;;;26.70;48.80;;;;;;5009973;28;82556;-45
2023/08/19 21:19:39;;;;;;;;;;;26.70;48.80;;;;;;5015481;28;83013;-46
2023/08/19 21:22:04;;;;;;;;;;;26.70;48.90;;;;;;5015727;28;81283;-45
2023/08/19 21:24:30;;;;;;;;;;;26.70;48.90;;;;;;5014740;28;82814;-45
2023/08/19 21:26:55;;;;;;;;;;;26.70;48.80;;;;;;5018892;28;82085;-45
2023/08/19 21:29:22;;;;;;;;;;;26.70;48.90;;;;;;5013388;28;82960;-44
2023/08/19 21:31:47;;;;;;;;;;;26.70;48.90;;;;;;5012506;28;82999;-45
2023/08/19 21:34:13;;;;;;;;;;;26.70;48.90;;;;;;5016437;28;82031;-44
2023/08/19 21:36:38;;;;;;;;;;;26.70;48.90;;;;;;5019616;28;82304;-44
2023/08/19 21:39:04;;;;;;;;;;;26.70;48.90;;;;;;5018114;28;83230;-45
2023/08/19 21:41:29;;;;;;;;;;;26.70;49.00;;;;;;5018672;28;82245;-44
2023/08/19 21:43:55;;;;;;;;;;;26.70;48.90;;;;;;5019246;28;82479;-44
2023/08/19 21:46:20;;;;;;;;;;;26.60;48.90;;;;;;5016520;28;82884;-43
2023/08/19 21:48:49;;;;;;;;;;;26.70;48.90;;;;;;5020109;28;81962;-48
2023/08/19 21:51:15;;;;;;;;;;;26.70;48.90;;;;;;5012862;28;82999;-46
2023/08/19 21:53:41;;;;;;;;;;;26.60;48.90;;;;;;5019054;28;83007;-44
2023/08/19 21:56:07;;;;;;;;;;;26.60;48.90;;;;;;5017778;28;82547;-44
2023/08/19 21:58:32;;;;;;;;;;;26.60;48.90;;;;;;5018273;28;83198;-45
2023/08/19 22:00:58;;;;;;;;;;;26.60;48.90;;;;;;5017298;28;82120;-46
2023/08/19 22:03:23;;;;;;;;;;;26.60;49.00;;;;;;5015315;28;82970;-45
2023/08/19 22:05:49;;;;;;;;;;;26.60;48.90;;;;;;5019417;28;82135;-44
2023/08/19 22:08:15;;;;;;;;;;;26.60;49.00;;;;;;5019208;28;81911;-44
2023/08/19 22:10:41;;;;;;;;;;;26.60;48.90;;;;;;5019360;28;82410;-46
2023/08/19 22:13:07;;;;;;;;;;;26.60;48.90;;;;;;5016965;28;82035;-44
2023/08/19 22:15:32;;;;;;;;;;;26.60;49.00;;;;;;5018627;28;82070;-44
2023/08/19 22:17:58;;;;;;;;;;;26.60;49.00;;;;;;5010975;28;83928;-46
2023/08/19 22:20:24;;;;;;;;;;;26.60;48.90;;;;;;5017224;28;82129;-46
2023/08/19 22:22:50;;;;;;;;;;;26.60;48.90;;;;;;5018703;28;83037;-46
2023/08/19 22:25:15;;;;;;;;;;;26.60;49.00;;;;;;5016123;28;83213;-45
2023/08/19 22:27:41;;;;;;;;;;;26.60;49.00;;;;;;5052004;27;82133;-47
2023/08/19 22:30:07;;;;;;;;;;;26.60;49.10;;;;;;5018681;28;81956;-45
2023/08/19 22:32:33;;;;;;;;;;;26.60;49.00;;;;;;5012224;28;82021;-44
2023/08/19 22:34:58;;;;;;;;;;;26.60;49.00;;;;;;5017734;28;82410;-44
2023/08/19 22:37:24;;;;;;;;;;;26.50;49.00;;;;;;5017595;28;82925;-46
2023/08/19 22:39:49;;;;;;;;;;;26.50;49.00;;;;;;5018280;28;82146;-46
2023/08/19 22:42:15;;;;;;;;;;;26.50;48.90;;;;;;5016265;28;82968;-43
2023/08/19 22:44:40;;;;;;;;;;;26.50;49.00;;;;;;5018164;28;83263;-44
2023/08/19 22:47:06;;;;;;;;;;;26.50;49.00;;;;;;5012784;28;82272;-46
2023/08/19 22:49:31;;;;;;;;;;;26.50;48.90;;;;;;5018962;28;82394;-45
2023/08/19 22:51:58;;;;;;;;;;;26.40;49.00;;;;;;5018845;28;83219;-44
2023/08/19 22:54:24;;;;;;;;;;;26.40;49.00;;;;;;5018004;28;82554;-48
2023/08/19 22:56:50;;;;;;;;;;;26.40;49.00;;;;;;5017091;28;82845;-44
2023/08/19 22:59:15;;;;;;;;;;;26.40;49.00;;;;;;5017290;28;81257;-43
2023/08/19 23:01:41;;;;;;;;;;;26.40;49.00;;;;;;5016406;28;82216;-43
2023/08/19 23:04:06;;;;;;;;;;;26.40;49.00;;;;;;5013366;28;82616;-46
2023/08/19 23:06:32;;;;;;;;;;;26.40;49.10;;;;;;5018621;28;83139;-43
2023/08/19 23:08:57;;;;;;;;;;;26.30;49.00;;;;;;5015695;28;83590;-45
2023/08/19 23:11:23;;;;;;;;;;;26.30;49.00;;;;;;5017439;28;83267;-46
2023/08/19 23:13:48;;;;;;;;;;;26.30;49.00;;;;;;5019232;28;82043;-45
2023/08/19 23:16:14;;;;;;;;;;;26.30;49.00;;;;;;5017161;28;82891;-47
2023/08/19 23:18:39;;;;;;;;;;;26.30;49.00;;;;;;5013145;28;82209;-46
2023/08/19 23:21:05;;;;;;;;;;;26.30;49.00;;;;;;5016037;28;81991;-47
2023/08/19 23:23:30;;;;;;;;;;;26.30;49.10;;;;;;5018960;28;82388;-45
2023/08/19 23:25:56;;;;;;;;;;;26.20;49.00;;;;;;5015055;28;81865;-45
2023/08/19 23:28:21;;;;;;;;;;;26.20;49.00;;;;;;5011485;28;82535;-46
2023/08/19 23:30:47;;;;;;;;;;;26.30;49.10;;;;;;5017085;28;84144;-44
2023/08/19 23:33:12;;;;;;;;;;;26.20;49.00;;;;;;5015030;28;81979;-44
2023/08/19 23:35:38;;;;;;;;;;;26.20;49.10;;;;;;5018854;28;82408;-46
2023/08/19 23:38:04;;;;;;;;;;;26.20;49.00;;;;;;5015185;28;81966;-43
2023/08/19 23:40:29;;;;;;;;;;;26.20;49.00;;;;;;5016894;28;83957;-45
2023/08/19 23:42:55;;;;;;;;;;;26.10;49.00;;;;;;5015608;28;83214;-45
2023/08/19 23:45:20;;;;;;;;;;;26.20;49.10;;;;;;5018099;28;82455;-44
2023/08/19 23:47:46;;;;;;;;;;;26.10;49.10;;;;;;5011184;28;82558;-44
2023/08/19 23:50:12;;;;;;;;;;;26.10;49.10;;;;;;5017643;28;82815;-46
2023/08/19 23:52:41;;;;;;;;;;;26.20;49.10;;;;;;5015750;28;82061;-43
2023/08/19 23:55:07;;;;;;;;;;;26.10;49.10;;;;;;5017521;28;83089;-44
2023/08/19 23:57:33;;;;;;;;;;;26.10;49.10;;;;;;5017033;28;82080;-45
2023/08/19 23:59:58;;;;;;;;;;;26.10;49.10;;;;;;5015408;28;82296;-45
